Time;durP1;ratioP1;P1;durP2;ratioP2;P2;SDS_P1;SDS_P2;PMS_P1;PMS_P2;Temp;Humidity;BMP_temperature;BMP_pressure;BME280_temperature;BME280_humidity;BME280_pressure;Samples;Min_cycle;Max_cycle;Signal;HPM_P1;HPM_P2
2022/05/10 00:00:47;;;;;;;16.60;14.90;;;;;;;13.09;90.05;68227.81;6061399;23;20102;-83
2022/05/10 00:03:13;;;;;;;17.90;15.95;;;;;;;13.10;89.48;68228.94;6064110;23;20630;-83
2022/05/10 00:05:39;;;;;;;17.10;15.35;;;;;;;;;;6051598;23;20079;-85
2022/05/10 00:08:08;;;;;;;18.45;15.13;;;;;;;13.12;89.81;68230.63;6035587;23;20070;-84
2022/05/10 00:10:34;;;;;;;17.67;15.73;;;;;;;13.09;89.79;68227.81;6033864;23;20023;-83
2022/05/10 00:13:00;;;;;;;17.33;15.45;;;;;;;13.06;90.15;68224.97;6036015;23;20107;-85
2022/05/10 00:15:27;;;;;;;18.08;16.08;;;;;;;13.10;89.90;68228.94;6034101;23;20027;-84
2022/05/10 00:17:53;;;;;;;16.77;14.98;;;;;;;;;;6036835;23;20110;-84
2022/05/10 00:20:21;;;;;;;17.70;15.52;;;;;;;13.06;90.18;68224.97;6009696;23;20019;-83
2022/05/10 00:22:46;;;;;;;17.85;15.23;;;;;;;;;;6036490;23;20033;-82
2022/05/10 00:25:15;;;;;;;20.33;16.08;;;;;;;13.02;90.08;68220.41;6034942;23;20427;-83
2022/05/10 00:27:40;;;;;;;18.77;15.30;;;;;;;13.03;89.83;68220.97;6035940;23;20103;-82
2022/05/10 00:30:07;;;;;;;17.00;15.30;;;;;;;12.97;90.22;68214.16;6010188;23;20457;-82
2022/05/10 00:32:35;;;;;;;18.13;16.17;;;;;;;13.00;90.14;68217.56;6035521;23;20019;-82
2022/05/10 00:35:01;;;;;;;16.40;14.80;;;;;;;12.97;89.97;68214.16;6033996;23;20019;-85
2022/05/10 00:37:27;;;;;;;17.70;15.80;;;;;;;;;;6046806;23;20026;-83
2022/05/10 00:39:53;;;;;;;18.20;16.20;;;;;;;12.92;91.39;68209.06;6024725;23;20398;-85
2022/05/10 00:42:41;;;;;;;17.75;15.70;;;;;;;12.98;90.77;68209.97;6048661;23;20024;-84
2022/05/10 00:45:06;;;;;;;17.15;15.35;;;;;;;;;;6066011;23;20023;-84
2022/05/10 00:47:50;;;;;;;18.80;15.50;;;;;;;13.09;90.16;68227.81;6039925;23;20566;-83
2022/05/10 00:50:32;;;;;;;18.98;14.82;;;;;;;13.12;89.95;68225.88;6037793;23;20056;-82
2022/05/10 00:53:03;;;;;;;17.95;15.82;;;;;;;13.13;89.56;68231.78;6058558;23;20019;-84
2022/05/10 00:55:44;;;;;;;17.50;15.63;;;;;;;13.14;90.08;68232.91;6039950;23;20015;-81
2022/05/10 00:58:40;;;;;;;20.23;16.50;;;;;;;13.16;89.88;68237.88;6043378;23;20023;-82
2022/05/10 01:01:08;;;;;;;18.60;16.70;;;;;;;13.15;90.06;68229.28;5996275;23;20020;-82
2022/05/10 01:03:36;;;;;;;20.60;17.23;;;;;;;;;;6045625;23;20031;-83
2022/05/10 01:06:24;;;;;;;20.85;18.63;;;;;;;13.17;89.95;68236.91;6045478;23;20023;-82
2022/05/10 01:08:49;;;;;;;19.45;17.45;;;;;;;13.20;90.11;68240.31;6083405;23;20007;-80
2022/05/10 01:11:18;;;;;;;23.20;18.00;;;;;;;;;;6058989;23;20023;-81
2022/05/10 01:13:47;;;;;;;;;;;;;;;13.21;90.06;68244.13;6043268;23;20357;-80
2022/05/10 01:16:14;;;;;;;;;;;;;;;13.16;89.78;68235.75;6040601;23;19910;-81
2022/05/10 01:18:41;;;;;;;20.00;17.05;;;;;;;13.21;89.67;68241.47;6041994;23;19910;-81
2022/05/10 01:21:15;;;;;;;20.27;17.95;;;;;;;;;;6041405;23;20575;-82
2022/05/10 01:24:03;;;;;;;22.10;18.92;;;;;;;13.47;88.58;68270.47;6043889;23;20030;-81
2022/05/10 01:26:34;;;;;;;20.63;17.63;;;;;;;13.59;87.97;68283.00;6041786;23;20015;-81
2022/05/10 01:29:06;;;;;;;21.45;18.70;;;;;;;13.61;87.82;68285.84;6045188;23;20027;-81
2022/05/10 01:31:38;;;;;;;21.15;18.77;;;;;;;;;;6019678;23;20030;-82
2022/05/10 01:34:11;;;;;;;22.52;18.35;;;;;;;13.75;86.27;68301.78;6047636;23;20449;-81
2022/05/10 01:36:54;;;;;;;22.63;19.40;;;;;;;13.72;87.04;68303.13;6044396;23;20401;-82
2022/05/10 01:39:33;;;;;;;22.85;18.95;;;;;;;13.63;87.61;68288.09;6045696;23;20027;-82
2022/05/10 01:42:15;;;;;;;19.90;17.88;;;;;;;;;;6023157;23;20026;-82
2022/05/10 01:45:10;;;;;;;22.02;19.05;;;;;;;13.48;88.86;68271.03;6048988;23;20026;-82
2022/05/10 01:47:44;;;;;;;20.85;18.80;;;;;;;13.47;89.28;68272.59;6052290;23;20019;-81
2022/05/10 01:50:28;;;;;;;21.35;19.08;;;;;;;13.39;89.45;68261.38;6053195;23;20035;-81
2022/05/10 01:53:01;;;;;;;22.55;19.63;;;;;;;;;;6078730;23;20023;-81
2022/05/10 01:55:29;;;;;;;23.98;19.48;;;;;;;13.32;89.49;68254.00;6051984;23;20027;-81
2022/05/10 01:57:55;;;;;;;23.38;20.98;;;;;;;;;;6038072;23;20019;-81
2022/05/10 02:00:27;;;;;;;22.27;19.88;;;;;;;13.20;90.20;68240.31;6036291;23;20047;-82
2022/05/10 02:02:58;;;;;;;22.02;19.65;;;;;;;13.23;90.15;68243.72;6034887;23;20020;-83
2022/05/10 02:05:31;;;;;;;23.15;20.02;;;;;;;13.21;90.10;68241.47;6034124;23;20050;-83
2022/05/10 02:07:59;;;;;;;22.80;18.98;;;;;;;;;;6036210;23;20016;-82
2022/05/10 02:10:34;;;;;;;24.67;21.27;;;;;;;13.13;90.44;68237.69;6009545;23;20047;-82
2022/05/10 02:13:05;;;;;;;22.52;19.85;;;;;;;13.11;90.04;68224.72;6037738;23;20019;-82
2022/05/10 02:15:59;;;;;;;23.20;20.10;;;;;;;13.03;91.28;68220.97;6034431;23;20030;-82
2022/05/10 02:18:28;;;;;;;22.95;20.45;;;;;;;13.00;91.44;68218.13;5999129;23;20080;-82
2022/05/10 02:21:01;;;;;;;22.45;20.02;;;;;;;12.95;91.47;68214.56;6012476;23;20090;-82
2022/05/10 02:23:47;;;;;;;23.38;20.83;;;;;;;12.95;91.63;68214.56;6036732;23;20023;-82
2022/05/10 02:26:18;;;;;;;23.50;21.00;;;;;;;12.92;92.25;68211.13;6036968;23;20050;-82
2022/05/10 02:29:04;;;;;;;24.80;21.20;;;;;;;12.92;91.57;68208.47;6037128;23;20015;-81
2022/05/10 02:33:06;;;;;;;24.27;21.70;;;;;;;12.90;91.79;68208.88;6008167;23;20545;-82
2022/05/10 02:34:30;;;;;;;25.13;21.15;;;;;;;12.86;91.29;68202.22;6036374;23;20079;-82
2022/05/10 02:36:55;;;;;;;23.75;20.83;;;;;;;12.91;92.17;68212.69;6011026;23;20477;-82
2022/05/10 02:39:20;;;;;;;25.20;21.92;;;;;;;;;;6011910;23;20023;-81
2022/05/10 02:41:46;;;;;;;25.75;22.08;;;;;;;12.91;91.82;68210.00;6036601;23;20026;-81
2022/05/10 02:44:11;;;;;;;27.30;24.38;;;;;;;13.01;91.37;68219.28;6037621;23;20019;-79
2022/05/10 02:46:37;;;;;;;27.02;23.35;;;;;;;;;;6033723;23;20054;-80
2022/05/10 02:49:02;;;;;;;26.05;23.10;;;;;;;13.08;90.45;68227.22;6011738;23;20026;-81
2022/05/10 02:51:27;;;;;;;26.95;24.08;;;;;;;13.08;90.11;68226.66;6036034;23;20023;-81
2022/05/10 02:53:53;;;;;;;27.60;24.60;;;;;;;13.06;90.35;68229.72;6036394;23;20015;-80
2022/05/10 02:56:25;;;;;;;28.30;24.48;;;;;;;13.05;90.73;68226.50;6036221;23;20044;-80
2022/05/10 02:58:56;;;;;;;26.85;23.98;;;;;;;12.99;90.84;68219.66;6037054;23;20043;-82
2022/05/10 03:01:34;;;;;;;27.73;24.70;;;;;;;12.95;91.68;68214.56;6036382;23;20027;-81
2022/05/10 03:03:59;;;;;;;29.90;26.08;;;;;;;12.92;92.14;68211.72;6038333;23;20031;-81
2022/05/10 03:06:26;;;;;;;29.10;25.83;;;;;;;;;;6046403;23;20023;-81
2022/05/10 03:08:52;;;;;;;30.67;25.05;;;;;;;;;;6065803;23;20046;-81
2022/05/10 03:11:18;;;;;;;29.67;26.33;;;;;;;12.84;92.72;68200.53;6064938;23;20023;-80
2022/05/10 03:13:47;;;;;;;31.73;26.40;;;;;;;12.81;92.45;68202.44;6066326;23;20049;-82
2022/05/10 03:16:13;;;;;;;;;;;;;;;12.82;92.50;68197.69;6064592;23;20023;-81
2022/05/10 03:18:38;;;;;;;31.80;25.75;;;;;;;;;;6066601;23;19920;-82
2022/05/10 03:21:04;;;;;;;31.30;27.90;;;;;;;12.80;92.81;68195.97;6068085;23;20018;-83
2022/05/10 03:23:30;;;;;;;35.40;28.50;;;;;;;12.80;92.44;68195.97;6065746;23;20251;-83
2022/05/10 03:25:56;;;;;;;31.75;28.17;;;;;;;12.79;93.64;68194.25;6063480;23;20582;-85
2022/05/10 03:28:23;;;;;;;33.20;27.85;;;;;;;12.82;93.11;68198.25;6064997;23;20015;-82
2022/05/10 03:30:48;;;;;;;34.67;30.33;;;;;;;12.84;92.87;68205.28;6066202;23;20025;-84
2022/05/10 03:33:14;;;;;;;32.17;29.05;;;;;;;12.80;93.50;68195.97;6064112;23;20039;-84
2022/05/10 03:35:40;;;;;;;31.42;27.98;;;;;;;12.76;93.13;68190.84;6061303;23;20022;-83
2022/05/10 03:38:05;;;;;;;34.88;29.02;;;;;;;12.80;93.05;68198.06;6063742;23;20470;-83
2022/05/10 03:40:30;;;;;;;33.22;27.52;;;;;;;12.84;92.75;68194.59;6060683;23;20082;-82
2022/05/10 03:42:56;;;;;;;34.65;30.42;;;;;;;12.87;92.81;68206.59;6062188;23;20054;-85
2022/05/10 03:45:23;;;;;;;33.15;29.27;;;;;;;12.89;93.67;68205.66;6060585;23;20019;-83
2022/05/10 03:47:50;;;;;;;35.10;29.65;;;;;;;12.91;92.95;68207.34;6062949;23;20027;-81
2022/05/10 03:50:19;;;;;;;35.22;29.00;;;;;;;12.96;92.72;68213.03;6061474;23;20030;-83
2022/05/10 03:52:44;;;;;;;;;;;;;;;13.01;92.03;68221.38;6063579;23;20015;-82
2022/05/10 03:55:11;;;;;;;35.17;28.65;;;;;;;;;;6060449;23;19909;-84
2022/05/10 03:57:37;;;;;;;38.97;30.05;;;;;;;13.00;92.77;68217.56;6062233;23;20015;-82
2022/05/10 04:00:08;;;;;;;34.08;27.73;;;;;;;13.05;91.58;68218.47;6062614;23;20019;-83
2022/05/10 04:02:33;;;;;;;35.88;30.52;;;;;;;12.99;92.45;68217.00;6059506;23;20595;-81
2022/05/10 04:05:00;;;;;;;36.22;30.05;;;;;;;12.99;92.78;68219.66;6064674;23;20051;-82
2022/05/10 04:07:26;;;;;;;37.85;31.58;;;;;;;13.06;92.95;68224.97;6043997;23;20015;-82
2022/05/10 04:09:51;;;;;;;33.72;30.15;;;;;;;;;;6048397;23;20021;-83
2022/05/10 04:12:16;;;;;;;36.80;30.13;;;;;;;13.24;91.68;68246.97;6044992;23;20070;-84
2022/05/10 04:14:41;;;;;;;39.50;31.42;;;;;;;13.28;91.10;68248.88;6022191;23;20248;-82
2022/05/10 04:17:07;;;;;;;37.72;32.45;;;;;;;13.30;91.41;68251.16;6018981;23;20350;-82
2022/05/10 04:19:32;;;;;;;35.67;31.40;;;;;;;13.32;91.45;68253.41;6044024;23;20139;-82
2022/05/10 04:21:58;;;;;;;40.15;31.42;;;;;;;13.39;91.28;68260.81;6045899;23;20155;-82
2022/05/10 04:24:23;;;;;;;39.70;30.33;;;;;;;13.35;91.26;68256.25;6044881;23;20015;-81
2022/05/10 04:26:49;;;;;;;34.03;30.38;;;;;;;13.38;90.67;68259.66;6042214;23;20019;-83
2022/05/10 04:29:15;;;;;;;38.03;30.10;;;;;;;13.30;90.40;68251.72;6019972;23;20025;-82
2022/05/10 04:31:40;;;;;;;37.58;30.88;;;;;;;13.28;91.28;68252.09;6031212;23;20015;-82
2022/05/10 04:34:06;;;;;;;41.30;32.83;;;;;;;13.23;91.92;68243.72;6058122;23;20048;-82
2022/05/10 04:36:31;;;;;;;36.30;30.75;;;;;;;13.23;91.50;68243.72;6012968;23;20675;-82
2022/05/10 04:38:57;;;;;;;39.95;32.85;;;;;;;13.29;91.86;68250.00;6039022;23;20110;-82
2022/05/10 04:41:24;;;;;;;39.47;31.35;;;;;;;;;;6019328;23;20067;-82
2022/05/10 04:43:51;;;;;;;36.67;31.00;;;;;;;13.39;91.68;68266.72;6040106;23;20106;-82
2022/05/10 04:46:16;;;;;;;36.38;32.25;;;;;;;13.39;92.35;68260.81;6011401;23;20035;-82
2022/05/10 04:48:42;;;;;;;40.92;31.95;;;;;;;13.48;90.70;68271.63;6011604;23;20074;-82
2022/05/10 04:51:08;;;;;;;37.28;31.98;;;;;;;13.57;90.75;68286.06;6038730;23;20022;-82
2022/05/10 04:53:34;;;;;;;39.03;31.30;;;;;;;;;;6035684;23;20469;-83
2022/05/10 04:55:59;;;;;;;38.60;31.92;;;;;;;13.62;91.06;68289.66;6038875;23;20019;-82
2022/05/10 04:58:24;;;;;;;42.80;32.38;;;;;;;;;;6043260;23;20397;-82
2022/05/10 05:00:50;;;;;;;40.23;33.03;;;;;;;13.76;89.76;68302.34;6035958;23;20019;-82
2022/05/10 05:03:15;;;;;;;36.00;30.33;;;;;;;13.79;90.91;68305.19;6008353;23;20247;-84
2022/05/10 05:05:41;;;;;;;37.33;31.88;;;;;;;;;;6025846;23;20362;-84
2022/05/10 05:08:06;;;;;;;37.05;31.95;;;;;;;13.90;89.61;68318.25;6063200;23;20022;-83
2022/05/10 05:10:32;;;;;;;37.25;32.30;;;;;;;13.96;89.79;68325.09;6061058;23;20026;-84
2022/05/10 05:12:58;;;;;;;37.78;31.05;;;;;;;14.04;89.44;68327.69;6063345;23;20026;-84
2022/05/10 05:15:23;;;;;;;36.38;30.13;;;;;;;14.11;89.42;68341.59;6059070;23;20019;-84
2022/05/10 05:17:49;;;;;;;35.35;31.55;;;;;;;14.21;89.53;68347.03;6059910;23;20047;-84
2022/05/10 05:20:14;;;;;;;36.08;29.27;;;;;;;14.29;89.52;68361.50;6060668;23;20025;-84
2022/05/10 05:22:39;;;;;;;33.30;28.92;;;;;;;14.40;88.55;68373.47;6061716;23;20023;-85
2022/05/10 05:25:06;;;;;;;32.55;28.90;;;;;;;14.47;88.77;68381.41;6084511;23;20055;-85
2022/05/10 05:27:32;;;;;;;39.05;29.08;;;;;;;14.56;87.49;68391.69;6062553;23;20485;-84
2022/05/10 05:29:57;;;;;;;36.97;27.42;;;;;;;14.67;88.02;68403.66;6063209;23;20040;-84
2022/05/10 05:32:31;;;;;;;34.60;26.75;;;;;;;14.75;87.41;68412.19;6059564;23;20520;-84
2022/05/10 05:34:57;;;;;;;32.35;25.70;;;;;;;14.83;86.52;68421.88;6084827;23;20029;-84
2022/05/10 05:37:34;;;;;;;34.58;26.48;;;;;;;14.93;86.52;68432.13;6062174;23;20014;-85
2022/05/10 05:40:00;;;;;;;34.17;27.25;;;;;;;;;;6035322;23;20019;-84
2022/05/10 05:42:26;;;;;;;31.60;25.77;;;;;;;15.05;86.40;68446.34;6060947;23;20026;-84
2022/05/10 05:44:51;;;;;;;35.70;26.33;;;;;;;15.13;86.03;68454.88;6062900;23;20019;-84
2022/05/10 05:47:17;;;;;;;30.50;25.17;;;;;;;15.21;85.86;68463.44;6059428;23;20018;-84
2022/05/10 05:49:42;;;;;;;32.22;24.85;;;;;;;15.29;85.86;68467.75;6060443;23;20197;-84
2022/05/10 05:52:08;;;;;;;34.22;24.80;;;;;;;;;;6063928;23;20511;-84
2022/05/10 05:54:33;;;;;;;30.30;24.73;;;;;;;15.47;84.46;68492.47;6063428;23;20097;-84
2022/05/10 05:57:00;;;;;;;30.05;24.35;;;;;;;15.58;84.39;68505.59;6062341;23;20342;-84
2022/05/10 05:59:26;;;;;;;29.75;23.85;;;;;;;15.70;83.60;68512.78;6060845;23;20041;-84
2022/05/10 06:01:51;;;;;;;31.92;24.27;;;;;;;15.84;83.20;68533.53;6063295;23;20349;-84
2022/05/10 06:04:16;;;;;;;26.98;22.67;;;;;;;15.95;81.51;68541.25;6063890;23;20070;-84
2022/05/10 06:06:42;;;;;;;30.77;23.00;;;;;;;16.05;81.78;68556.88;6037918;23;20039;-84
2022/05/10 06:09:07;;;;;;;27.63;22.65;;;;;;;16.16;80.97;68564.06;6035268;23;20603;-84
2022/05/10 06:11:33;;;;;;;29.60;22.30;;;;;;;16.25;81.28;68579.69;6030534;23;20735;-84
2022/05/10 06:13:59;;;;;;;29.98;22.35;;;;;;;16.34;80.29;68589.38;6033047;23;20020;-84
2022/05/10 06:16:24;;;;;;;32.55;22.63;;;;;;;16.42;79.44;68599.06;6033383;23;20015;-84
2022/05/10 06:18:49;;;;;;;31.02;20.25;;;;;;;16.56;79.08;68608.53;6037113;23;20019;-84
2022/05/10 06:21:15;;;;;;;30.10;21.20;;;;;;;16.63;78.24;68621.88;6010069;23;20851;-84
2022/05/10 06:23:40;;;;;;;28.75;21.33;;;;;;;;;;6032145;23;20027;-84
2022/05/10 06:26:05;;;;;;;31.50;20.47;;;;;;;16.73;77.48;68633.28;6031701;23;20051;-84
2022/05/10 06:28:31;;;;;;;28.20;20.23;;;;;;;16.77;77.94;68637.28;6031787;23;20247;-84
2022/05/10 06:30:56;;;;;;;28.00;20.20;;;;;;;16.82;76.96;68643.00;6008450;23;20015;-84
2022/05/10 06:33:22;;;;;;;26.98;20.25;;;;;;;16.89;77.49;68651.00;6007800;23;20025;-84
2022/05/10 06:35:48;;;;;;;28.70;20.65;;;;;;;;;;6032255;23;20047;-84
2022/05/10 06:38:16;;;;;;;32.70;21.67;;;;;;;17.00;77.06;68663.50;6033214;23;20106;-84
2022/05/10 06:40:43;;;;;;;31.08;19.67;;;;;;;17.07;76.50;68671.50;6033122;23;20034;-84
2022/05/10 06:43:08;;;;;;;31.73;20.15;;;;;;;17.13;76.04;68677.78;6034812;23;20021;-84
2022/05/10 06:45:35;;;;;;;28.20;20.75;;;;;;;17.25;76.78;68686.09;6007480;23;20023;-84
2022/05/10 06:48:00;;;;;;;26.98;19.00;;;;;;;;;;6032563;23;20365;-84
2022/05/10 06:50:26;;;;;;;25.65;18.83;;;;;;;17.43;75.01;68705.47;6008302;23;20030;-84
2022/05/10 06:52:54;;;;;;;30.85;18.88;;;;;;;17.45;75.07;68708.34;6033608;23;20031;-84
2022/05/10 06:55:20;;;;;;;29.05;19.23;;;;;;;17.56;75.20;68720.88;6033895;23;20023;-84
2022/05/10 06:57:46;;;;;;;31.77;20.75;;;;;;;;;;6032139;23;20027;-84
2022/05/10 07:00:13;;;;;;;26.40;19.00;;;;;;;17.68;74.58;68733.44;6009852;23;20438;-84
2022/05/10 07:02:38;;;;;;;27.17;18.63;;;;;;;;;;6008736;23;20466;-84
2022/05/10 07:05:04;;;;;;;25.92;17.90;;;;;;;17.89;74.34;68762.25;6035035;23;20027;-84
2022/05/10 07:07:29;;;;;;;24.85;17.35;;;;;;;17.95;73.97;68769.09;6034128;23;20015;-84
2022/05/10 07:09:55;;;;;;;21.50;17.10;;;;;;;18.06;73.50;68775.69;6021371;23;20091;-85
2022/05/10 07:12:20;;;;;;;26.08;17.98;;;;;;;;;;6053577;23;20012;-84
2022/05/10 07:14:46;;;;;;;21.88;16.13;;;;;;;18.25;73.13;68797.94;6026631;23;20027;-85
2022/05/10 07:17:12;;;;;;;28.23;17.15;;;;;;;;;;6051088;23;20075;-85
2022/05/10 07:19:37;;;;;;;22.23;17.83;;;;;;;18.54;71.92;68834.75;6049317;23;20023;-85
2022/05/10 07:22:03;;;;;;;22.67;16.73;;;;;;;18.65;72.64;68842.50;6017813;23;20015;-85
2022/05/10 07:24:28;;;;;;;20.90;16.52;;;;;;;18.79;71.80;68862.72;6015134;23;20322;-85
2022/05/10 07:26:54;;;;;;;22.73;16.50;;;;;;;18.89;70.58;68869.34;6039314;23;20023;-85
2022/05/10 07:29:19;;;;;;;22.10;14.93;;;;;;;18.96;69.78;68882.19;6039285;23;20022;-84
2022/05/10 07:31:45;;;;;;;20.75;14.68;;;;;;;19.08;69.15;68890.47;6037450;23;20015;-85
2022/05/10 07:34:10;;;;;;;18.63;13.88;;;;;;;19.19;68.08;68907.88;6037474;23;20636;-83
2022/05/10 07:36:36;;;;;;;23.20;13.38;;;;;;;19.31;66.98;68915.63;6037029;23;20071;-84
2022/05/10 07:39:07;;;;;;;22.05;13.85;;;;;;;19.48;67.34;68932.34;6037615;23;20030;-84
2022/05/10 07:41:33;;;;;;;24.05;12.13;;;;;;;19.60;66.43;68948.19;6013751;23;20461;-85
2022/05/10 07:43:59;;;;;;;17.88;12.77;;;;;;;;;;6040087;23;20046;-85
2022/05/10 07:46:25;;;;;;;19.38;12.18;;;;;;;19.90;65.86;68981.91;6014222;23;20026;-85
2022/05/10 07:48:51;;;;;;;15.68;11.13;;;;;;;20.01;63.49;68999.31;6042519;23;20019;-85
2022/05/10 07:51:17;;;;;;;18.52;11.70;;;;;;;20.08;63.08;69006.75;6042167;23;20019;-85
2022/05/10 07:53:42;;;;;;;17.33;11.05;;;;;;;20.09;62.65;68999.78;6021814;23;20030;-84
2022/05/10 07:56:08;;;;;;;16.33;10.57;;;;;;;20.12;61.71;69011.91;6026420;23;20071;-84
2022/05/10 07:58:35;;;;;;;16.05;10.10;;;;;;;;;;6047621;23;20022;-84
2022/05/10 08:01:01;;;;;;;16.25;9.98;;;;;;;20.28;62.25;69024.19;6036566;23;20098;-85
2022/05/10 08:03:26;;;;;;;13.30;9.48;;;;;;;;;;6035764;23;20090;-85
2022/05/10 08:05:55;;;;;;;14.93;9.75;;;;;;;20.41;60.55;69038.50;6035823;23;20070;-84
2022/05/10 08:08:21;;;;;;;14.27;9.73;;;;;;;20.39;60.45;69036.22;6038947;23;20031;-85
2022/05/10 08:10:48;;;;;;;13.15;9.52;;;;;;;20.41;60.50;69044.47;6036686;23;20461;-85
2022/05/10 08:13:17;;;;;;;12.38;9.55;;;;;;;20.43;60.39;69046.78;6037619;23;20413;-84
2022/05/10 08:15:42;;;;;;;14.00;9.55;;;;;;;20.46;60.80;69044.78;6009558;23;20066;-84
2022/05/10 08:18:08;;;;;;;12.80;10.20;;;;;;;;;;6038044;23;20015;-85
2022/05/10 08:20:34;;;;;;;14.10;9.60;;;;;;;;;;6037645;23;20042;-84
2022/05/10 08:23:00;;;;;;;13.32;8.98;;;;;;;20.58;60.70;69065.50;6011381;23;20099;-84
2022/05/10 08:25:25;;;;;;;12.02;9.45;;;;;;;20.67;60.33;69067.69;6011188;23;20023;-84
2022/05/10 08:27:50;;;;;;;18.25;9.02;;;;;;;20.73;59.50;69074.56;6037200;23;20143;-84
2022/05/10 08:30:16;;;;;;;14.18;8.93;;;;;;;20.79;59.55;69081.41;6035306;23;20050;-85
2022/05/10 08:32:42;;;;;;;16.35;9.65;;;;;;;20.86;59.39;69089.44;6034569;23;20022;-84
2022/05/10 08:35:08;;;;;;;13.70;8.70;;;;;;;;;;6036216;23;20023;-84
2022/05/10 08:37:36;;;;;;;12.35;9.00;;;;;;;20.96;58.65;69100.28;6037842;23;20366;-84
2022/05/10 08:40:04;;;;;;;11.98;8.27;;;;;;;21.02;58.36;69106.56;6014412;23;20103;-84
2022/05/10 08:42:33;;;;;;;13.77;8.50;;;;;;;21.03;58.46;69113.13;6012283;23;20027;-85
2022/05/10 08:45:04;;;;;;;12.93;8.33;;;;;;;21.14;58.09;69125.72;6039616;23;20244;-84
2022/05/10 08:47:30;;;;;;;12.32;8.68;;;;;;;21.19;58.31;69126.59;6037784;23;20255;-85
2022/05/10 08:50:09;;;;;;;12.18;8.73;;;;;;;21.26;57.45;69134.03;6037691;23;20128;-85
2022/05/10 08:52:39;;;;;;;13.60;8.00;;;;;;;21.33;57.18;69139.34;6038428;23;20039;-84
2022/05/10 08:55:06;;;;;;;12.07;8.00;;;;;;;21.51;57.50;69162.09;6038633;23;20019;-85
2022/05/10 08:57:48;;;;;;;10.90;7.20;;;;;;;21.62;57.25;69171.97;6013497;23;20476;-84
2022/05/10 09:00:40;;;;;;;10.63;6.88;;;;;;;21.75;55.73;69185.69;6040066;23;20027;-85
2022/05/10 09:03:30;;;;;;;11.70;6.47;;;;;;;21.80;56.14;69199.56;6014055;23;20030;-85
2022/05/10 09:06:06;;;;;;;26.60;7.95;;;;;;;21.77;54.94;69191.25;6028504;23;20042;-85
2022/05/10 09:08:56;;;;;;;12.18;7.13;;;;;;;21.70;54.77;69188.69;6043334;23;20480;-85
2022/05/10 09:11:22;;;;;;;12.40;6.82;;;;;;;21.82;56.34;69193.72;6043576;23;20023;-84
2022/05/10 09:13:48;;;;;;;10.70;6.57;;;;;;;21.97;55.19;69208.16;6018360;23;20019;-84
2022/05/10 09:16:14;;;;;;;12.20;6.50;;;;;;;22.09;55.19;69226.75;6042288;23;20488;-84
2022/05/10 09:18:49;;;;;;;12.82;6.80;;;;;;;22.20;55.70;69236.09;6035559;23;20050;-84
2022/05/10 09:21:27;;;;;;;8.32;5.80;;;;;;;22.33;55.12;69253.69;6036880;23;20205;-84
2022/05/10 09:24:10;;;;;;;12.88;6.05;;;;;;;;;;6035083;23;20027;-84
2022/05/10 09:26:44;;;;;;;9.63;5.82;;;;;;;22.27;54.26;69247.41;6033911;23;20508;-83
2022/05/10 09:29:35;;;;;;;12.60;6.40;;;;;;;22.24;54.05;69243.38;6035290;23;20019;-84
2022/05/10 09:35:07;;;;;;;8.55;6.22;;;;;;;22.26;54.43;69245.66;6037108;23;20394;-83
2022/05/10 09:37:39;;;;;;;10.35;6.13;;;;;;;22.16;54.25;69232.06;6036229;23;20061;-83
2022/05/10 09:40:11;;;;;;;10.38;5.75;;;;;;;22.30;54.72;69248.13;6036059;23;20521;-84
2022/05/10 09:42:42;;;;;;;10.10;5.93;;;;;;;22.28;54.23;69248.53;6010773;23;20052;-85
2022/05/10 09:45:38;;;;;;;10.57;6.00;;;;;;;22.21;53.42;69237.22;6033890;23;20019;-85
2022/05/10 09:48:14;;;;;;;8.60;5.68;;;;;;;22.19;54.21;69235.53;5998074;23;20497;-85
2022/05/10 09:50:47;;;;;;;7.45;5.97;;;;;;;22.17;53.60;69241.34;6035209;23;20019;-84
2022/05/10 09:53:12;;;;;;;9.35;5.88;;;;;;;22.14;53.64;69231.91;6011337;23;20454;-85
2022/05/10 09:55:40;;;;;;;8.80;5.60;;;;;;;22.12;54.13;69229.63;6033143;23;20020;-85
2022/05/10 09:58:25;;;;;;;9.93;5.82;;;;;;;22.10;54.19;69225.19;6010351;23;20323;-85
2022/05/10 10:00:55;;;;;;;10.85;5.65;;;;;;;22.11;53.96;69226.34;6011847;23;20042;-84
2022/05/10 10:03:25;;;;;;;9.45;5.57;;;;;;;;;;6034995;23;20019;-84
2022/05/10 10:05:50;;;;;;;11.98;5.47;;;;;;;22.02;52.97;69219.31;6031775;23;20128;-84
2022/05/10 10:08:16;;;;;;;8.45;5.70;;;;;;;22.01;52.80;69217.59;6035275;23;20415;-85
2022/05/10 10:10:41;;;;;;;9.98;6.05;;;;;;;;;;6033354;23;20023;-85
2022/05/10 10:13:33;;;;;;;10.67;5.40;;;;;;;22.07;53.44;69224.47;6035925;23;20026;-84
2022/05/10 10:15:58;;;;;;;7.82;5.40;;;;;;;22.09;53.68;69226.75;6025704;23;20255;-85
2022/05/10 10:18:47;;;;;;;7.18;5.35;;;;;;;22.07;53.33;69225.03;6035675;23;20011;-84
2022/05/10 10:21:23;;;;;;;8.30;5.65;;;;;;;22.07;52.46;69225.03;6035440;23;20020;-84
2022/05/10 10:23:54;;;;;;;6.88;5.20;;;;;;;22.08;52.34;69225.63;6033811;23;20023;-85
2022/05/10 10:26:19;;;;;;;6.15;5.13;;;;;;;;;;6034012;23;20026;-84
2022/05/10 10:28:56;;;;;;;10.27;5.72;;;;;;;22.22;52.60;69246.53;6033794;23;20453;-85
2022/05/10 10:31:32;;;;;;;8.45;5.97;;;;;;;22.29;52.36;69249.66;6036504;23;20042;-85
2022/05/10 10:33:58;;;;;;;9.45;5.63;;;;;;;22.36;52.10;69256.56;6010678;23;20505;-84
2022/05/10 10:36:31;;;;;;;12.65;5.88;;;;;;;22.61;52.01;69282.47;6035078;23;20038;-84
2022/05/10 10:39:05;;;;;;;7.57;5.05;;;;;;;22.74;51.99;69300.06;6033448;23;20019;-85
2022/05/10 10:41:49;;;;;;;11.57;5.70;;;;;;;22.92;51.28;69314.69;6009013;23;20094;-84
2022/05/10 10:44:21;;;;;;;12.50;5.93;;;;;;;22.95;51.10;69320.84;6031778;23;20019;-85
2022/05/10 10:46:57;;;;;;;10.48;5.35;;;;;;;23.19;50.85;69347.22;6034008;23;20478;-85
2022/05/10 10:49:34;;;;;;;10.27;5.63;;;;;;;23.39;49.57;69369.53;6037781;23;20353;-86
2022/05/10 10:51:59;;;;;;;7.97;5.50;;;;;;;23.46;48.25;69374.28;6036879;23;20020;-86
2022/05/10 10:54:29;;;;;;;7.75;5.35;;;;;;;23.32;47.93;69361.53;6034910;23;20078;-85
2022/05/10 10:56:57;;;;;;;10.50;5.10;;;;;;;;;;6036620;23;20040;-86
2022/05/10 11:00:02;;;;;;;9.45;5.00;;;;;;;23.45;47.77;69370.41;6040312;23;20016;-86
2022/05/10 11:02:49;;;;;;;9.07;4.85;;;;;;;23.59;46.37;69395.19;6034498;23;20043;-86
2022/05/10 11:05:49;;;;;;;7.65;5.25;;;;;;;23.68;46.21;69398.91;6048020;23;20083;-87
2022/05/10 11:08:18;;;;;;;10.25;4.57;;;;;;;23.86;46.95;69425.00;6046579;23;20018;-86
2022/05/10 11:10:46;;;;;;;10.52;5.07;;;;;;;;;;6043056;23;20551;-86
2022/05/10 11:13:26;;;;;;;16.93;5.33;;;;;;;23.85;44.81;69419.00;6041853;23;20019;-86
2022/05/10 11:16:13;;;;;;;9.52;4.95;;;;;;;23.94;44.62;69428.75;6018263;23;20243;-87
2022/05/10 11:18:43;;;;;;;8.95;4.63;;;;;;;24.02;41.70;69437.31;6046917;23;20015;-87
2022/05/10 11:21:19;;;;;;;9.93;4.50;;;;;;;24.18;42.97;69457.81;6029700;23;20022;-86
2022/05/10 11:24:24;;;;;;;8.95;5.30;;;;;;;24.32;42.30;69476.59;6039859;23;20023;-86
2022/05/10 11:26:52;;;;;;;7.78;4.75;;;;;;;24.31;43.19;69475.44;5997784;23;20020;-86
2022/05/10 11:29:35;;;;;;;7.53;4.60;;;;;;;24.34;43.38;69476.19;6010662;23;20589;-86
2022/05/10 11:32:12;;;;;;;7.32;4.63;;;;;;;24.35;42.70;69480.03;6032299;23;20015;-86
2022/05/10 11:34:57;;;;;;;9.60;4.47;;;;;;;24.25;43.43;69468.56;6009601;23;20028;-86
2022/05/10 11:37:31;;;;;;;11.85;5.65;;;;;;;24.26;42.41;69469.72;6040766;23;20050;-86
2022/05/10 11:40:09;;;;;;;10.50;5.07;;;;;;;24.22;43.31;69462.41;6013690;23;20019;-86
2022/05/10 11:43:00;;;;;;;8.63;5.40;;;;;;;24.19;43.09;69461.69;6010874;23;20023;-86
2022/05/10 11:45:46;;;;;;;8.70;5.32;;;;;;;24.27;43.15;69466.00;6036076;23;20087;-86
2022/05/10 11:48:15;;;;;;;9.52;4.50;;;;;;;24.44;42.60;69487.09;6037518;23;20027;-86
2022/05/10 11:51:38;;;;;;;11.30;4.28;;;;;;;24.32;42.57;69474.44;6035175;23;20560;-86
2022/05/10 11:54:03;;;;;;;14.63;6.05;;;;;;;24.37;43.16;69482.34;5949078;24;20021;-86
2022/05/10 11:56:32;;;;;;;7.40;4.75;;;;;;;;;;5949332;24;20064;-87
2022/05/10 11:59:03;;;;;;;7.53;4.40;;;;;;;24.53;42.11;69500.13;5999505;23;20019;-86
2022/05/10 12:01:42;;;;;;;8.23;4.28;;;;;;;24.53;41.47;69500.13;6038243;23;20015;-86
2022/05/10 12:04:40;;;;;;;8.45;4.80;;;;;;;24.60;41.27;69504.84;6009315;23;20031;-85